createdAt,value
2019-02-22T00:01:40.078Z,93.17
2019-02-22T00:04:13.431Z,93.16
2019-02-22T00:06:46.029Z,93.27
2019-02-22T00:09:16.826Z,93.14
2019-02-22T00:11:47.818Z,93.09
2019-02-22T00:14:19.645Z,93.07
2019-02-22T00:16:50.552Z,93.06
2019-02-22T00:19:22.253Z,93.03
2019-02-22T00:21:53.470Z,93.16
2019-02-22T00:24:24.594Z,93.21
2019-02-22T00:26:55.886Z,92.93
2019-02-22T00:29:27.159Z,93.16
2019-02-22T00:31:58.509Z,93.08
2019-02-22T00:34:29.367Z,93.07
2019-02-22T00:37:00.536Z,92.93
2019-02-22T00:39:31.301Z,92.99
2019-02-22T00:42:02.245Z,92.98
2019-02-22T00:44:33.152Z,92.68
2019-02-22T00:47:04.374Z,92.39
2019-02-22T00:49:35.743Z,92.07
2019-02-22T00:52:07.083Z,91.46
2019-02-22T00:54:38.900Z,91.74
2019-02-22T00:57:09.448Z,91.56
2019-02-22T00:59:40.260Z,91.73
2019-02-22T01:02:11.682Z,91.67
2019-02-22T01:04:42.193Z,91.88
2019-02-22T01:07:13.902Z,92.20
2019-02-22T01:09:45.782Z,92.19
2019-02-22T01:12:17.055Z,89.65
2019-02-22T01:14:48.396Z,88.54
2019-02-22T01:17:19.443Z,89.02
2019-02-22T01:19:50.436Z,89.28
2019-02-22T01:22:21.835Z,90.17
2019-02-22T01:24:53.118Z,89.68
2019-02-22T01:27:24.135Z,90.74
2019-02-22T01:29:55.342Z,89.50
2019-02-22T01:32:26.874Z,89.01
2019-02-22T01:35:01.113Z,88.49
2019-02-22T01:37:33.432Z,88.49
2019-02-22T01:40:05.766Z,88.85
2019-02-22T01:42:36.841Z,88.62
2019-02-22T01:45:08.310Z,88.95
2019-02-22T01:47:39.559Z,90.06
2019-02-22T01:50:13.336Z,90.02
2019-02-22T01:52:44.309Z,89.92
2019-02-22T01:55:15.220Z,89.66
2019-02-22T01:57:46.186Z,89.12
2019-02-22T02:00:17.294Z,88.82
2019-02-22T02:02:48.363Z,89.37
2019-02-22T02:05:19.859Z,90.21
2019-02-22T02:07:50.885Z,89.67
2019-02-22T02:10:22.093Z,89.61
2019-02-22T02:12:53.137Z,89.75
2019-02-22T02:15:24.821Z,89.65
2019-02-22T02:17:55.831Z,90.75
2019-02-22T02:20:27.020Z,90.53
2019-02-22T02:22:58.454Z,90.40
2019-02-22T02:25:29.663Z,90.62
2019-02-22T02:28:00.582Z,90.43
2019-02-22T02:30:32.889Z,90.53
2019-02-22T02:33:04.493Z,90.32
2019-02-22T02:35:36.009Z,90.33
2019-02-22T02:38:06.989Z,90.47
2019-02-22T02:40:38.205Z,90.78
2019-02-22T02:43:09.638Z,91.14
2019-02-22T02:45:40.883Z,90.83
2019-02-22T02:48:12.030Z,91.37
2019-02-22T02:50:43.057Z,90.57
2019-02-22T02:53:14.189Z,90.13
2019-02-22T02:55:45.236Z,90.13
2019-02-22T02:58:15.837Z,88.66
2019-02-22T03:00:46.863Z,88.70
2019-02-22T03:03:18.705Z,89.10
2019-02-22T03:05:51.651Z,88.85
2019-02-22T03:08:24.014Z,89.15
2019-02-22T03:10:54.923Z,89.52
2019-02-22T03:13:26.557Z,89.13
2019-02-22T03:15:57.430Z,89.41
2019-02-22T03:18:27.885Z,88.69
2019-02-22T03:20:59.762Z,88.45
2019-02-22T03:23:30.643Z,88.70
2019-02-22T03:26:01.631Z,89.43
2019-02-22T03:28:33.110Z,89.15
2019-02-22T03:31:04.826Z,88.65
2019-02-22T03:33:35.834Z,89.10
2019-02-22T03:36:06.905Z,89.25
2019-02-22T03:38:38.120Z,88.16
2019-02-22T03:41:09.369Z,88.68
2019-02-22T03:43:41.292Z,88.66
2019-02-22T03:46:12.202Z,88.75
2019-02-22T03:48:43.425Z,88.75
2019-02-22T03:51:14.884Z,88.83
2019-02-22T03:53:47.314Z,89.08
2019-02-22T03:56:18.874Z,88.54
2019-02-22T03:58:50.017Z,89.08
2019-02-22T04:01:21.070Z,89.37
2019-02-22T04:03:51.906Z,89.20
2019-02-22T04:06:22.463Z,89.61
2019-02-22T04:08:54.628Z,89.69
2019-02-22T04:11:25.821Z,89.58
2019-02-22T04:13:56.668Z,89.67
2019-02-22T04:16:27.979Z,88.56
2019-02-22T04:18:59.751Z,89.15
2019-02-22T04:21:30.279Z,88.82
2019-02-22T04:24:01.356Z,88.85
2019-02-22T04:26:32.143Z,88.75
2019-02-22T04:29:03.179Z,88.77
2019-02-22T04:31:33.864Z,85.81
2019-02-22T04:34:05.383Z,86.12
2019-02-22T04:36:36.082Z,84.93
2019-02-22T04:39:08.239Z,84.61
2019-02-22T04:41:39.019Z,84.72
2019-02-22T04:44:10.081Z,85.41
2019-02-22T04:46:40.983Z,84.83
2019-02-22T04:49:12.613Z,84.80
2019-02-22T04:51:43.730Z,84.79
2019-02-22T04:54:14.912Z,84.12
2019-02-22T04:56:46.464Z,84.83
2019-02-22T04:59:17.749Z,83.99
2019-02-22T05:01:48.573Z,84.50
2019-02-22T05:04:19.754Z,83.50
2019-02-22T05:06:50.768Z,83.50
2019-02-22T05:09:22.070Z,80.72
2019-02-22T05:11:53.144Z,82.44
2019-02-22T05:14:24.426Z,82.37
2019-02-22T05:16:55.509Z,80.69
2019-02-22T05:19:26.337Z,80.82
2019-02-22T05:21:57.261Z,81.89
2019-02-22T05:24:28.612Z,82.37
2019-02-22T05:26:59.683Z,81.01
2019-02-22T05:29:30.623Z,81.01
2019-02-22T05:32:01.502Z,79.29
2019-02-22T05:34:32.452Z,79.09
2019-02-22T05:37:03.442Z,79.75
2019-02-22T05:39:34.665Z,80.68
2019-02-22T05:42:06.096Z,80.41
2019-02-22T05:44:37.417Z,80.51
2019-02-22T05:47:08.573Z,80.51
2019-02-22T05:49:39.303Z,79.68
2019-02-22T05:52:10.659Z,79.68
2019-02-22T05:54:42.053Z,79.23
2019-02-22T05:57:14.284Z,79.23
2019-02-22T05:59:46.185Z,78.80
2019-02-22T06:02:17.081Z,79.24
2019-02-22T06:04:48.459Z,78.21
2019-02-22T06:07:19.648Z,78.11
2019-02-22T06:09:52.190Z,78.45
2019-02-22T06:12:33.910Z,78.27
2019-02-22T06:14:56.042Z,77.79
2019-02-22T06:17:27.345Z,75.66
2019-02-22T06:19:58.954Z,75.66
2019-02-22T06:22:30.276Z,75.69
2019-02-22T06:25:01.838Z,75.96
2019-02-22T06:27:32.633Z,75.96
2019-02-22T06:30:04.280Z,75.40
2019-02-22T06:32:35.544Z,76.36
2019-02-22T06:35:08.947Z,76.35
2019-02-22T06:37:40.413Z,75.43
2019-02-22T06:40:11.379Z,75.82
2019-02-22T06:42:46.012Z,77.43
2019-02-22T06:45:16.976Z,77.28
2019-02-22T06:47:48.121Z,78.37
2019-02-22T06:50:19.206Z,77.59
2019-02-22T06:52:49.862Z,77.00
2019-02-22T06:55:21.013Z,77.74
2019-02-22T06:57:52.309Z,76.28
2019-02-22T07:00:23.993Z,77.07
2019-02-22T07:02:55.544Z,77.35
2019-02-22T07:05:26.664Z,77.44
2019-02-22T07:07:57.799Z,76.33
2019-02-22T07:10:30.788Z,76.09
2019-02-22T07:13:03.677Z,76.09
2019-02-22T07:15:35.264Z,74.23
2019-02-22T07:18:06.295Z,74.64
2019-02-22T07:20:37.482Z,74.66
2019-02-22T07:23:08.263Z,74.22
2019-02-22T07:25:39.621Z,74.29
2019-02-22T07:28:11.142Z,73.75
2019-02-22T07:30:42.282Z,74.04
2019-02-22T07:33:13.570Z,73.61
2019-02-22T07:35:45.261Z,73.17
2019-02-22T07:38:16.724Z,73.24
2019-02-22T07:40:48.407Z,72.73
2019-02-22T07:43:19.902Z,73.62
2019-02-22T07:45:51.068Z,71.91
2019-02-22T07:48:22.221Z,73.34
2019-02-22T07:50:57.631Z,72.46
2019-02-22T07:53:26.709Z,72.00
2019-02-22T07:55:57.712Z,71.19
2019-02-22T07:58:29.104Z,70.18
2019-02-22T08:01:00.831Z,69.86
2019-02-22T08:03:32.167Z,69.28
2019-02-22T08:06:03.360Z,68.93
2019-02-22T08:08:34.405Z,67.73
2019-02-22T08:11:05.683Z,67.09
2019-02-22T08:13:37.106Z,67.69
2019-02-22T08:16:08.018Z,67.48
2019-02-22T08:18:40.015Z,66.96
2019-02-22T08:21:11.605Z,66.30
2019-02-22T08:23:42.857Z,67.56
2019-02-22T08:26:14.450Z,66.41
2019-02-22T08:28:45.920Z,65.84
2019-02-22T08:31:17.243Z,63.92
2019-02-22T08:33:49.395Z,64.78
2019-02-22T08:36:20.806Z,65.94
2019-02-22T08:38:51.870Z,64.19
2019-02-22T08:41:23.184Z,63.95
2019-02-22T08:43:54.726Z,62.15
2019-02-22T08:46:26.410Z,63.90
2019-02-22T08:48:58.759Z,63.81
2019-02-22T08:51:29.950Z,64.51
2019-02-22T08:54:01.784Z,64.07
2019-02-22T08:56:33.287Z,61.00
2019-02-22T08:59:05.804Z,61.56
2019-02-22T09:01:36.777Z,60.00
2019-02-22T09:04:09.620Z,60.10
2019-02-22T09:06:40.890Z,59.36
2019-02-22T09:09:12.102Z,60.61
2019-02-22T09:11:44.520Z,60.94
2019-02-22T09:14:16.105Z,61.35
2019-02-22T09:16:47.372Z,58.86
2019-02-22T09:19:18.510Z,59.55
2019-02-22T09:21:49.431Z,57.47
2019-02-22T09:24:20.614Z,58.79
2019-02-22T09:26:51.288Z,57.30
2019-02-22T09:29:22.593Z,56.98
2019-02-22T09:31:54.013Z,58.38
2019-02-22T09:34:25.840Z,57.90
2019-02-22T09:36:57.818Z,56.48
2019-02-22T09:39:29.400Z,53.64
2019-02-22T09:42:01.052Z,55.73
2019-02-22T09:44:33.121Z,55.25
2019-02-22T09:47:04.974Z,55.16
2019-02-22T09:49:36.262Z,55.07
2019-02-22T09:52:07.239Z,54.88
2019-02-22T09:54:38.509Z,53.64
2019-02-22T09:57:10.206Z,53.64
2019-02-22T09:59:41.195Z,53.10
2019-02-22T10:02:12.715Z,53.96
2019-02-22T10:04:54.634Z,53.49
2019-02-22T10:07:17.361Z,52.78
2019-02-22T10:09:48.680Z,51.61
2019-02-22T10:12:20.458Z,50.68
2019-02-22T10:14:52.408Z,50.68
2019-02-22T10:17:24.223Z,49.43
2019-02-22T10:19:55.426Z,50.98
2019-02-22T10:22:27.038Z,50.13
2019-02-22T10:24:58.620Z,50.87
2019-02-22T10:27:30.349Z,48.57
2019-02-22T10:30:01.414Z,50.30
2019-02-22T10:32:32.960Z,51.91
2019-02-22T10:35:04.666Z,49.72
2019-02-22T10:37:35.589Z,49.72
2019-02-22T10:40:08.781Z,50.70
2019-02-22T10:42:39.979Z,48.82
2019-02-22T10:45:12.113Z,50.60
2019-02-22T10:47:43.544Z,49.33
2019-02-22T10:50:15.900Z,49.56
2019-02-22T10:52:46.654Z,49.56
2019-02-22T10:55:18.025Z,48.11
2019-02-22T10:57:49.750Z,49.79
2019-02-22T11:00:21.385Z,45.14
2019-02-22T11:02:52.678Z,44.44
2019-02-22T11:05:24.438Z,46.36
2019-02-22T11:07:55.517Z,45.81
2019-02-22T11:10:27.095Z,45.77
2019-02-22T11:12:58.363Z,47.21
2019-02-22T11:15:30.114Z,46.20
2019-02-22T11:18:01.093Z,46.41
2019-02-22T11:20:32.478Z,44.89
2019-02-22T11:23:03.365Z,45.56
2019-02-22T11:25:34.504Z,45.56
2019-02-22T11:28:05.887Z,47.02
2019-02-22T11:30:37.397Z,44.02
2019-02-22T11:33:09.179Z,45.57
2019-02-22T11:35:40.686Z,46.42
2019-02-22T11:38:12.218Z,45.57
2019-02-22T11:40:43.437Z,43.59
2019-02-22T11:43:14.955Z,43.68
2019-02-22T11:45:46.430Z,43.86
2019-02-22T11:48:18.159Z,44.66
2019-02-22T11:50:49.866Z,45.34
2019-02-22T11:53:21.291Z,45.32
2019-02-22T11:55:53.005Z,46.99
2019-02-22T11:58:24.762Z,46.22
2019-02-22T12:00:56.668Z,44.84
2019-02-22T12:03:28.101Z,46.89
2019-02-22T12:05:59.259Z,47.07
2019-02-22T12:08:30.374Z,46.78
2019-02-22T12:11:01.588Z,45.91
2019-02-22T12:13:33.557Z,45.11
2019-02-22T12:16:04.559Z,47.35
2019-02-22T12:18:36.959Z,46.58
2019-02-22T12:21:13.658Z,42.85
2019-02-22T12:23:53.047Z,42.83
2019-02-22T12:26:24.983Z,43.90
2019-02-22T12:28:55.709Z,42.56
2019-02-22T12:31:27.461Z,43.66
2019-02-22T12:33:58.707Z,42.28
2019-02-22T12:36:30.630Z,44.10
2019-02-22T12:39:02.191Z,43.37
2019-02-22T12:41:35.626Z,43.68
2019-02-22T12:44:06.795Z,46.65
2019-02-22T12:46:39.548Z,44.28
2019-02-22T12:49:13.510Z,43.41
2019-02-22T12:51:49.288Z,43.36
2019-02-22T12:54:22.631Z,44.00
2019-02-22T12:56:57.526Z,43.35
2019-02-22T12:59:28.163Z,45.21
2019-02-22T13:02:01.472Z,45.40
2019-02-22T13:04:32.984Z,44.30
2019-02-22T13:07:04.176Z,44.22
2019-02-22T13:09:36.916Z,43.65
2019-02-22T13:12:14.020Z,43.92
2019-02-22T13:14:40.483Z,43.22
2019-02-22T13:17:11.568Z,43.10
2019-02-22T13:19:42.704Z,43.66
2019-02-22T13:22:13.155Z,44.38
2019-02-22T13:24:43.948Z,43.75
2019-02-22T13:27:14.365Z,44.21
2019-02-22T13:29:44.912Z,44.04
2019-02-22T13:32:15.354Z,43.89
2019-02-22T13:34:46.201Z,43.38
2019-02-22T13:37:16.712Z,43.82
2019-02-22T13:39:47.277Z,43.81
2019-02-22T13:42:17.531Z,45.02
2019-02-22T13:44:48.110Z,43.81
2019-02-22T13:47:18.380Z,43.59
2019-02-22T13:49:48.623Z,43.19
2019-02-22T13:52:18.909Z,42.29
2019-02-22T13:54:49.286Z,43.26
2019-02-22T13:57:20.407Z,43.34
2019-02-22T13:59:50.710Z,44.84
2019-02-22T14:02:20.969Z,43.12
2019-02-22T14:04:51.293Z,42.94
2019-02-22T14:07:21.545Z,44.33
2019-02-22T14:09:51.827Z,44.68
2019-02-22T14:12:22.132Z,43.96
2019-02-22T14:14:52.769Z,45.03
2019-02-22T14:17:23.692Z,45.03
2019-02-22T14:19:54.019Z,43.81
2019-02-22T14:22:24.253Z,43.27
2019-02-22T14:24:54.590Z,42.80
2019-02-22T14:27:24.912Z,42.93
2019-02-22T14:29:55.200Z,43.24
2019-02-22T14:32:25.468Z,43.75
2019-02-22T14:34:55.808Z,43.61
2019-02-22T14:37:28.066Z,43.67
2019-02-22T14:40:03.337Z,44.11
2019-02-22T14:42:42.972Z,43.06
2019-02-22T14:45:16.450Z,42.97
2019-02-22T14:47:47.563Z,42.84
2019-02-22T14:50:23.343Z,42.58
2019-02-22T14:52:55.957Z,42.89
2019-02-22T14:55:26.578Z,42.02
2019-02-22T14:57:58.526Z,42.45
2019-02-22T15:00:29.896Z,41.46
2019-02-22T15:03:01.773Z,42.71
2019-02-22T15:05:33.904Z,41.83
2019-02-22T15:08:05.025Z,43.93
2019-02-22T15:10:35.734Z,43.93
2019-02-22T15:13:07.979Z,40.09
2019-02-22T15:15:41.463Z,40.70
2019-02-22T15:18:15.094Z,40.96
2019-02-22T15:20:47.177Z,40.96
2019-02-22T15:23:20.469Z,43.18
2019-02-22T15:25:51.947Z,43.18
2019-02-22T15:28:23.147Z,42.58
2019-02-22T15:30:55.761Z,42.58
2019-02-22T15:33:27.708Z,41.72
2019-02-22T15:35:59.173Z,41.72
2019-02-22T15:38:31.011Z,42.28
2019-02-22T15:41:02.447Z,42.74
2019-02-22T15:43:33.490Z,42.93
2019-02-22T15:46:12.252Z,42.73
2019-02-22T15:48:37.009Z,42.83
2019-02-22T15:51:08.555Z,42.91
2019-02-22T15:53:39.778Z,43.92
2019-02-22T15:56:10.667Z,44.09
2019-02-22T15:58:42.467Z,44.67
2019-02-22T16:01:14.522Z,44.38
2019-02-22T16:03:47.571Z,45.44
2019-02-22T16:06:19.447Z,45.33
2019-02-22T16:08:51.384Z,45.22
2019-02-22T16:11:28.346Z,46.10
2019-02-22T16:14:07.089Z,45.93
2019-02-22T16:16:39.252Z,46.33
2019-02-22T16:19:33.407Z,46.89
2019-02-22T16:22:14.871Z,47.38
2019-02-22T16:24:46.286Z,47.61
2019-02-22T16:27:17.323Z,49.27
2019-02-22T16:29:52.922Z,49.14
2019-02-22T16:32:38.491Z,49.62
2019-02-22T16:35:19.761Z,49.89
2019-02-22T16:37:55.593Z,49.66
2019-02-22T16:40:30.879Z,49.68
2019-02-22T16:43:01.726Z,50.60
2019-02-22T16:45:32.642Z,50.76
2019-02-22T16:48:03.360Z,51.03
2019-02-22T16:50:34.815Z,51.13
2019-02-22T16:53:06.045Z,51.13
2019-02-22T16:55:36.801Z,51.85
2019-02-22T16:58:07.633Z,52.01
2019-02-22T17:00:38.362Z,53.55
2019-02-22T17:03:10.203Z,53.22
2019-02-22T17:05:40.961Z,53.89
2019-02-22T17:08:11.760Z,54.12
2019-02-22T17:10:42.681Z,53.38
2019-02-22T17:13:13.092Z,53.79
2019-02-22T17:15:43.601Z,53.37
2019-02-22T17:18:14.585Z,53.45
2019-02-22T17:20:45.409Z,53.80
2019-02-22T17:23:16.011Z,53.80
2019-02-22T17:25:47.401Z,54.67
2019-02-22T17:28:18.161Z,54.96
2019-02-22T17:30:48.520Z,54.95
2019-02-22T17:33:19.239Z,55.24
2019-02-22T17:35:49.738Z,55.30
2019-02-22T17:38:20.218Z,55.74
2019-02-22T17:40:53.633Z,55.74
2019-02-22T17:43:24.320Z,56.23
2019-02-22T17:45:54.813Z,55.14
2019-02-22T17:48:28.923Z,56.05
2019-02-22T17:51:01.031Z,55.37
2019-02-22T17:53:31.641Z,55.48
2019-02-22T17:56:02.044Z,55.26
2019-02-22T17:58:33.909Z,55.75
2019-02-22T18:01:04.920Z,56.18
2019-02-22T18:03:35.361Z,55.42
2019-02-22T18:06:05.929Z,55.59
2019-02-22T18:08:36.431Z,55.36
2019-02-22T18:11:06.954Z,55.80
2019-02-22T18:13:37.411Z,55.05
2019-02-22T18:16:08.261Z,54.89
2019-02-22T18:18:39.272Z,55.79
2019-02-22T18:21:09.887Z,55.54
2019-02-22T18:23:40.272Z,55.17
2019-02-22T18:26:10.862Z,56.25
2019-02-22T18:28:41.312Z,57.10
2019-02-22T18:31:11.711Z,58.09
2019-02-22T18:33:42.239Z,58.38
2019-02-22T18:36:12.611Z,58.34
2019-02-22T18:38:43.023Z,58.31
2019-02-22T18:41:13.922Z,58.68
2019-02-22T18:43:44.375Z,60.44
2019-02-22T18:46:14.839Z,57.78
2019-02-22T18:48:45.401Z,58.32
2019-02-22T18:51:15.888Z,58.07
2019-02-22T18:53:46.337Z,58.29
2019-02-22T18:56:16.785Z,58.44
2019-02-22T18:58:47.105Z,58.62
2019-02-22T19:01:17.489Z,58.73
2019-02-22T19:03:48.124Z,57.83
2019-02-22T19:06:18.800Z,59.00
2019-02-22T19:08:49.355Z,59.22
2019-02-22T19:11:19.929Z,59.50
2019-02-22T19:13:51.569Z,59.89
2019-02-22T19:16:22.000Z,60.16
2019-02-22T19:18:52.753Z,60.09
2019-02-22T19:21:23.461Z,60.21
2019-02-22T19:23:54.240Z,59.50
2019-02-22T19:26:24.689Z,60.02
2019-02-22T19:28:55.273Z,60.35
2019-02-22T19:31:25.977Z,60.93
2019-02-22T19:33:56.307Z,60.72
2019-02-22T19:36:26.681Z,61.36
2019-02-22T19:38:57.127Z,60.97
2019-02-22T19:41:27.649Z,61.21
2019-02-22T19:43:58.261Z,61.34
2019-02-22T19:46:28.896Z,61.35
2019-02-22T19:48:59.385Z,61.77
2019-02-22T19:51:29.850Z,62.04
2019-02-22T19:54:00.742Z,62.64
2019-02-22T19:56:34.251Z,62.72
2019-02-22T19:59:09.969Z,63.17
2019-02-22T20:01:40.464Z,63.40
2019-02-22T20:04:11.644Z,62.46
2019-02-22T20:06:42.303Z,64.32
2019-02-22T20:09:13.817Z,62.73
2019-02-22T20:11:48.159Z,64.45
2019-02-22T20:14:18.422Z,64.30
2019-02-22T20:16:48.794Z,64.68
2019-02-22T20:19:21.209Z,64.94
2019-02-22T20:21:58.193Z,65.30
2019-02-22T20:24:29.784Z,65.35
2019-02-22T20:27:02.055Z,65.37
2019-02-22T20:29:33.042Z,65.54
2019-02-22T20:32:03.956Z,65.45
2019-02-22T20:34:40.343Z,65.56
2019-02-22T20:37:12.884Z,65.25
2019-02-22T20:39:43.373Z,64.54
2019-02-22T20:42:13.811Z,64.90
2019-02-22T20:44:44.201Z,65.59
2019-02-22T20:47:14.528Z,65.75
2019-02-22T20:49:44.811Z,65.82
2019-02-22T20:52:15.219Z,65.84
2019-02-22T20:54:45.761Z,66.16
2019-02-22T20:57:18.613Z,66.31
2019-02-22T20:59:51.003Z,65.85
2019-02-22T21:02:22.007Z,66.07
2019-02-22T21:04:54.896Z,66.44
2019-02-22T21:07:25.872Z,67.27
2019-02-22T21:09:56.337Z,67.83
2019-02-22T21:12:29.567Z,67.81
2019-02-22T21:14:59.944Z,68.07
2019-02-22T21:17:30.905Z,67.99
2019-02-22T21:20:02.639Z,68.33
2019-02-22T21:22:33.144Z,68.02
2019-02-22T21:25:03.593Z,68.55
2019-02-22T21:27:34.032Z,68.55
2019-02-22T21:30:05.962Z,68.78
2019-02-22T21:32:36.312Z,69.26
2019-02-22T21:35:07.979Z,69.09
2019-02-22T21:37:39.276Z,68.77
2019-02-22T21:40:10.916Z,68.81
2019-02-22T21:42:41.178Z,68.65
2019-02-22T21:45:14.180Z,69.45
2019-02-22T21:47:54.383Z,69.90
2019-02-22T21:50:17.854Z,70.40
2019-02-22T21:52:48.148Z,70.52
2019-02-22T21:55:18.435Z,70.37
2019-02-22T21:57:48.906Z,70.77
2019-02-22T22:00:21.741Z,70.95
2019-02-22T22:02:52.106Z,70.61
2019-02-22T22:05:22.491Z,70.48
2019-02-22T22:07:52.815Z,70.67
2019-02-22T22:10:23.124Z,70.93
2019-02-22T22:12:53.550Z,71.02
2019-02-22T22:15:23.856Z,70.98
2019-02-22T22:17:54.234Z,71.21
2019-02-22T22:20:24.520Z,71.76
2019-02-22T22:22:55.884Z,71.92
2019-02-22T22:25:26.170Z,71.83
2019-02-22T22:27:56.529Z,71.18
2019-02-22T22:30:26.986Z,71.92
2019-02-22T22:32:57.344Z,71.47
2019-02-22T22:35:27.789Z,71.43
2019-02-22T22:37:58.562Z,72.71
2019-02-22T22:40:28.916Z,72.97
2019-02-22T22:42:59.198Z,72.56
2019-02-22T22:45:30.142Z,73.13
2019-02-22T22:48:01.033Z,72.85
2019-02-22T22:50:31.318Z,72.42
2019-02-22T22:53:01.643Z,72.50
2019-02-22T22:55:31.936Z,72.76
2019-02-22T22:58:02.240Z,72.36
2019-02-22T23:00:35.811Z,72.47
2019-02-22T23:03:07.827Z,72.63
2019-02-22T23:05:38.660Z,73.06
2019-02-22T23:08:09.602Z,73.09
2019-02-22T23:10:40.572Z,72.59
2019-02-22T23:13:12.012Z,73.15
2019-02-22T23:15:42.853Z,73.08
2019-02-22T23:18:14.502Z,72.98
2019-02-22T23:20:45.625Z,73.43
2019-02-22T23:23:16.916Z,73.54
2019-02-22T23:25:48.128Z,73.66
2019-02-22T23:28:19.651Z,73.46
2019-02-22T23:30:50.620Z,73.42
2019-02-22T23:33:21.527Z,73.01
2019-02-22T23:35:52.404Z,73.82
2019-02-22T23:38:23.767Z,73.22
2019-02-22T23:40:54.967Z,73.64
2019-02-22T23:43:26.228Z,74.26
2019-02-22T23:45:56.993Z,74.49
2019-02-22T23:48:27.447Z,75.24
2019-02-22T23:50:58.528Z,74.99
2019-02-22T23:53:29.553Z,74.91
2019-02-22T23:56:00.639Z,74.36
2019-02-22T23:58:32.368Z,73.98
